Time;durP1;ratioP1;P1;durP2;ratioP2;P2;SDS_P1;SDS_P2;PMS_P1;PMS_P2;Temp;Humidity;BMP_temperature;BMP_pressure;BME280_temperature;BME280_humidity;BME280_pressure;Samples;Min_cycle;Max_cycle;Signal;HPM_P1;HPM_P2
2023/07/23 00:00:52;;;;;;;2.62;1.95;;;;;;;19.86;100.00;100381.97;5533620;32;35134;-61
2023/07/23 00:03:56;;;;;;;3.65;2.22;;;;;;;19.72;100.00;100385.06;5534010;32;35279;-60
2023/07/23 00:06:59;;;;;;;4.05;2.20;;;;;;;19.56;100.00;100388.41;5547307;32;34901;-60
2023/07/23 00:10:03;;;;;;;3.55;2.15;;;;;;;19.41;100.00;100380.69;5533474;32;34032;-61
2023/07/23 00:13:06;;;;;;;3.83;2.37;;;;;;;19.49;100.00;100380.38;5533419;32;32410;-61
2023/07/23 00:16:09;;;;;;;4.03;2.37;;;;;;;19.26;100.00;100393.69;5533582;32;34372;-61
2023/07/23 00:19:18;;;;;;;3.50;2.47;;;;;;;19.08;100.00;100387.22;5547169;32;33751;-60
2023/07/23 00:22:22;;;;;;;6.50;2.50;;;;;;;18.99;100.00;100388.56;5533548;32;33849;-60
2023/07/23 00:25:25;;;;;;;6.22;2.50;;;;;;;18.88;100.00;100383.91;5547016;32;34047;-60
2023/07/23 00:28:28;;;;;;;3.28;2.37;;;;;;;18.79;100.00;100387.94;5533399;32;33701;-61
2023/07/23 00:31:31;;;;;;;5.97;2.83;;;;;;;18.72;100.00;100391.72;5533222;32;33800;-61
2023/07/23 00:34:34;;;;;;;4.47;2.28;;;;;;;18.72;100.00;100399.78;5546648;32;33922;-60
2023/07/23 00:37:37;;;;;;;3.42;2.50;;;;;;;18.74;100.00;100392.31;5533483;32;35154;-60
2023/07/23 00:40:40;;;;;;;4.85;2.40;;;;;;;18.78;100.00;100399.75;5548954;32;34175;-60
2023/07/23 00:43:43;;;;;;;6.10;2.50;;;;;;;18.87;100.00;100401.09;5548881;32;33959;-60
2023/07/23 00:46:47;;;;;;;5.72;2.35;;;;;;;19.22;100.00;100397.88;5549157;32;34130;-60
2023/07/23 00:49:50;;;;;;;4.90;2.50;;;;;;;19.28;100.00;100399.63;5548877;32;34295;-60
2023/07/23 00:52:53;;;;;;;2.80;2.20;;;;;;;19.30;100.00;100398.38;5535744;32;34594;-60
2023/07/23 00:55:59;;;;;;;4.10;2.33;;;;;;;19.39;100.00;100393.50;5548936;32;34166;-60
2023/07/23 00:59:02;;;;;;;3.10;2.40;;;;;;;19.36;100.00;100391.28;5549017;32;34788;-60
2023/07/23 01:02:08;;;;;;;6.20;2.67;;;;;;;19.21;100.00;100398.91;5548868;32;34100;-60
2023/07/23 01:05:11;;;;;;;5.55;2.30;;;;;;;19.08;100.00;100386.41;5535210;32;34053;-60
2023/07/23 01:08:14;;;;;;;5.47;2.70;;;;;;;18.90;100.00;100381.84;5535131;32;34077;-60
2023/07/23 01:11:17;;;;;;;6.18;2.60;;;;;;;18.82;100.00;100390.19;5548840;32;33799;-60
2023/07/23 01:14:20;;;;;;;5.18;2.60;;;;;;;18.74;100.00;100403.88;5534969;32;33897;-60
2023/07/23 01:17:24;;;;;;;5.07;2.50;;;;;;;18.65;100.00;100406.03;5548719;32;34389;-60
2023/07/23 01:20:29;;;;;;;5.03;2.53;;;;;;;18.64;100.00;100396.31;5522836;32;34720;-60
2023/07/23 01:23:33;;;;;;;6.05;2.60;;;;;;;18.69;100.00;100403.72;5534902;32;34106;-61
2023/07/23 01:26:36;;;;;;;3.53;2.47;;;;;;;18.65;100.00;100399.84;5548499;32;34302;-60
2023/07/23 01:29:39;;;;;;;4.05;2.55;;;;;;;18.79;100.00;100403.22;5534839;32;33787;-60
2023/07/23 01:32:42;;;;;;;3.70;2.60;;;;;;;18.71;100.00;100398.97;5548607;32;33970;-60
2023/07/23 01:35:46;;;;;;;3.25;2.37;;;;;;;18.67;100.00;100403.13;5535256;32;34070;-60
2023/07/23 01:38:49;;;;;;;4.95;2.83;;;;;;;18.67;100.00;100400.47;5548489;32;34399;-60
2023/07/23 01:41:53;;;;;;;3.17;2.50;;;;;;;18.57;100.00;100406.31;5534887;32;33927;-60
2023/07/23 01:45:01;;;;;;;5.25;2.80;;;;;;;18.50;100.00;100402.00;5535011;32;33996;-60
2023/07/23 01:48:04;;;;;;;3.12;2.60;;;;;;;18.46;100.00;100403.47;5548774;32;32919;-60
2023/07/23 01:51:10;;;;;;;3.90;2.72;;;;;;;18.37;100.00;100402.09;5547929;32;34636;-60
2023/07/23 01:54:13;;;;;;;5.80;2.67;;;;;;;18.32;100.00;100401.94;5534642;32;34063;-60
2023/07/23 01:57:16;;;;;;;8.10;2.65;;;;;;;18.27;100.00;100407.13;5548127;32;34755;-60
2023/07/23 02:00:23;;;;;;;3.92;2.30;;;;;;;18.23;100.00;100407.56;5548490;32;34149;-60
2023/07/23 02:03:26;;;;;;;3.95;2.37;;;;;;;18.47;100.00;100415.88;5548528;32;34535;-60
2023/07/23 02:06:29;;;;;;;5.25;2.50;;;;;;;18.45;100.00;100410.72;5548264;32;34192;-60
2023/07/23 02:09:34;;;;;;;5.07;2.47;;;;;;;18.40;100.00;100412.41;5548242;32;34603;-60
2023/07/23 02:12:37;;;;;;;4.72;2.58;;;;;;;18.27;100.00;100407.13;5548089;32;34104;-60
2023/07/23 02:15:40;;;;;;;3.67;2.50;;;;;;;18.22;100.00;100405.94;5548272;32;34264;-60
2023/07/23 02:18:43;;;;;;;4.90;2.37;;;;;;;18.14;100.00;100406.19;5533841;32;34841;-60
2023/07/23 02:21:47;;;;;;;4.85;2.30;;;;;;;18.07;100.00;100408.09;5548056;32;34661;-60
2023/07/23 02:24:49;;;;;;;4.15;2.58;;;;;;;18.00;100.00;100411.84;5548074;32;33761;-60
2023/07/23 02:27:52;;;;;;;3.22;2.42;;;;;;;17.91;100.00;100413.94;5547987;32;34787;-60
2023/07/23 02:30:59;;;;;;;4.55;2.62;;;;;;;17.84;100.00;100412.34;5548040;32;34011;-60
2023/07/23 02:34:02;;;;;;;3.97;2.60;;;;;;;17.77;100.00;100407.81;5548230;32;34049;-60
2023/07/23 02:37:05;;;;;;;4.80;2.72;;;;;;;17.70;100.00;100415.09;5547860;32;34864;-60
2023/07/23 02:40:09;;;;;;;5.80;2.42;;;;;;;17.70;100.00;100415.09;5548022;32;33407;-60
2023/07/23 02:43:12;;;;;;;3.37;2.50;;;;;;;17.65;100.00;100420.28;5534326;32;34588;-60
2023/07/23 02:46:15;;;;;;;4.25;2.47;;;;;;;17.55;100.00;100421.72;5548022;32;34039;-60
2023/07/23 02:49:18;;;;;;;4.95;2.85;;;;;;;17.50;100.00;100419.69;5534408;32;34681;-60
2023/07/23 02:52:21;;;;;;;6.53;2.83;;;;;;;17.44;100.00;100420.53;5547949;32;33756;-60
2023/07/23 02:55:25;;;;;;;5.18;2.72;;;;;;;17.30;100.00;100414.38;5534548;32;34281;-60
2023/07/23 02:58:28;;;;;;;6.53;2.83;;;;;;;17.25;100.00;100416.87;5534437;32;34016;-60
2023/07/23 03:01:31;;;;;;;8.98;3.05;;;;;;;17.25;100.00;100416.03;5533761;32;33862;-60
2023/07/23 03:04:34;;;;;;;4.62;2.80;;;;;;;17.27;100.00;100419.34;5534570;32;34778;-60
2023/07/23 03:07:38;;;;;;;4.40;3.00;;;;;;;17.31;100.00;100420.56;5534202;32;34782;-60
2023/07/23 03:10:41;;;;;;;4.47;2.95;;;;;;;17.30;100.00;100417.06;5534422;32;33870;-60
2023/07/23 03:13:44;;;;;;;5.00;2.55;;;;;;;17.31;100.00;100417.88;5547839;32;34155;-60
2023/07/23 03:16:47;;;;;;;4.05;2.70;;;;;;;17.24;100.00;100419.75;5547831;32;33925;-60
2023/07/23 03:19:51;;;;;;;7.60;3.17;;;;;;;17.19;100.00;100408.81;5534129;32;33567;-60
2023/07/23 03:22:54;;;;;;;5.20;3.12;;;;;;;17.17;100.00;100417.09;5547784;32;34375;-60
2023/07/23 03:25:56;;;;;;;4.82;2.80;;;;;;;17.17;100.00;100427.81;5548128;32;34425;-61
2023/07/23 03:29:00;;;;;;;4.10;2.90;;;;;;;17.15;100.00;100421.00;5533927;32;34120;-60
2023/07/23 03:32:03;;;;;;;4.47;2.67;;;;;;;17.23;100.00;100421.59;5547534;32;34101;-60
2023/07/23 03:35:06;;;;;;;5.32;3.03;;;;;;;17.21;100.00;100414.81;5547663;32;34462;-60
2023/07/23 03:38:09;;;;;;;4.75;2.92;;;;;;;17.22;100.00;100408.44;5547608;32;34287;-60
2023/07/23 03:41:12;;;;;;;8.52;3.00;;;;;;;17.24;100.00;100414.38;5547671;32;34256;-61
2023/07/23 03:44:15;;;;;;;5.80;3.50;;;;;;;17.24;100.00;100411.69;5547577;32;33645;-60
2023/07/23 03:47:20;;;;;;;6.12;3.20;;;;;;;17.26;100.00;100409.66;5547576;32;34823;-60
2023/07/23 03:50:23;;;;;;;6.90;3.40;;;;;;;17.28;100.00;100412.97;5547422;32;34987;-61
2023/07/23 03:53:26;;;;;;;6.93;3.20;;;;;;;17.32;100.00;100414.19;5547321;32;34278;-60
2023/07/23 03:56:28;;;;;;;5.53;3.08;;;;;;;17.39;100.00;100415.78;5547308;32;34125;-60
2023/07/23 03:59:40;;;;;;;8.25;3.42;;;;;;;17.50;100.00;100418.84;5547162;32;34816;-60
2023/07/23 04:02:42;;;;;;;6.05;3.10;;;;;;;17.61;100.00;100416.37;5533473;32;32731;-60
2023/07/23 04:05:45;;;;;;;5.45;3.10;;;;;;;17.72;100.00;100418.38;5547560;32;35181;-60
2023/07/23 04:08:48;;;;;;;5.65;3.50;;;;;;;17.79;100.00;100411.13;5547190;32;34041;-61
2023/07/23 04:11:52;;;;;;;6.10;3.42;;;;;;;17.88;100.00;100409.03;5546865;32;32460;-61
2023/07/23 04:14:54;;;;;;;7.15;3.50;;;;;;;17.97;100.00;100415.78;5546546;32;34399;-61
2023/07/23 04:17:57;;;;;;;8.05;3.55;;;;;;;18.07;100.00;100420.69;5533493;32;34268;-61
2023/07/23 04:21:00;;;;;;;5.47;3.35;;;;;;;18.20;100.00;100417.94;5547396;32;34645;-61
2023/07/23 04:24:03;;;;;;;7.87;3.45;;;;;;;18.34;100.00;100424.88;5547070;32;34812;-61
2023/07/23 04:27:07;;;;;;;5.22;3.10;;;;;;;18.40;100.00;100417.78;5546906;32;34825;-61
2023/07/23 04:30:10;;;;;;;7.22;3.60;;;;;;;18.42;100.00;100426.44;5533251;32;33178;-61
2023/07/23 04:33:13;;;;;;;6.53;3.35;;;;;;;18.41;100.00;100419.44;5533053;32;34250;-61
2023/07/23 04:36:17;;;;;;;6.72;3.70;;;;;;;18.50;100.00;100420.81;5533094;32;33601;-61
2023/07/23 04:39:20;;;;;;;6.62;3.60;;;;;;;18.68;100.00;100418.22;5546657;32;33829;-61
2023/07/23 04:42:23;;;;;;;8.32;3.55;;;;;;;18.77;100.00;100418.78;5546615;32;34550;-61
2023/07/23 04:45:26;;;;;;;5.97;3.60;;;;;;;18.85;100.00;100431.91;5533027;32;34543;-61
2023/07/23 04:48:29;;;;;;;7.80;3.62;;;;;;;18.94;100.00;100430.59;5546467;32;33853;-61
2023/07/23 04:51:32;;;;;;;7.22;3.50;;;;;;;18.97;100.00;100436.38;5546275;32;33799;-61
2023/07/23 04:54:35;;;;;;;6.30;3.50;;;;;;;19.13;100.00;100437.66;5532707;32;34156;-61
2023/07/23 04:57:38;;;;;;;7.00;3.75;;;;;;;19.20;100.00;100438.41;5546537;32;34138;-61
2023/07/23 05:00:41;;;;;;;7.82;4.10;;;;;;;19.35;100.00;100436.19;5546424;32;33849;-61
2023/07/23 05:03:44;;;;;;;6.82;3.80;;;;;;;19.61;100.00;100437.78;5532660;32;34073;-62
2023/07/23 05:06:47;;;;;;;9.77;4.30;;;;;;;19.70;100.00;100433.75;5532529;32;34224;-61
2023/07/23 05:09:50;;;;;;;6.43;4.25;;;;;;;19.81;100.00;100445.59;5546249;32;33721;-62
2023/07/23 05:12:53;;;;;;;9.48;4.50;;;;;;;19.89;100.00;100450.72;5545852;32;33851;-61
2023/07/23 05:16:00;;;;;;;6.60;4.10;;;;;;;19.84;100.00;100450.56;5546027;32;34241;-61
2023/07/23 05:19:03;;;;;;;6.78;4.10;;;;;;;19.80;100.00;100458.25;5546264;32;34676;-61
2023/07/23 05:22:06;;;;;;;5.82;3.92;;;;;;;19.78;100.00;100459.53;5532279;32;34636;-61
2023/07/23 05:25:09;;;;;;;7.10;4.18;;;;;;;19.84;100.00;100472.94;5547602;32;35132;-61
2023/07/23 05:28:13;;;;;;;7.47;4.10;;;;;;;19.90;100.00;100473.88;5548804;32;33621;-61
2023/07/23 05:31:17;;;;;;;6.72;3.62;;;;;;;19.95;100.00;100472.13;5549135;32;33889;-61
2023/07/23 05:34:20;;;;;;;7.20;4.00;;;;;;;20.08;100.00;100481.13;5547345;32;34670;-61
2023/07/23 05:37:24;;;;;;;6.90;3.78;;;;;;;20.13;100.00;100482.09;5549042;32;32849;-61
2023/07/23 05:40:27;;;;;;;6.70;3.90;;;;;;;20.13;100.00;100482.09;5535318;32;34776;-61
2023/07/23 05:43:30;;;;;;;5.95;4.18;;;;;;;20.17;100.00;100485.13;5548577;32;34171;-61
2023/07/23 05:46:33;;;;;;;6.03;4.00;;;;;;;20.19;100.00;100493.78;5534953;32;33973;-61
2023/07/23 05:49:36;;;;;;;7.18;4.35;;;;;;;20.23;100.00;100497.69;5548669;32;33199;-61
2023/07/23 05:52:39;;;;;;;6.72;4.07;;;;;;;20.56;100.00;100494.56;5546671;32;34570;-61
2023/07/23 05:55:43;;;;;;;7.22;4.00;;;;;;;20.97;100.00;100491.81;5534524;32;34123;-61
2023/07/23 05:58:45;;;;;;;6.75;4.00;;;;;;;20.83;100.00;100491.22;5548041;32;32936;-61
2023/07/23 06:01:49;;;;;;;6.05;3.70;;;;;;;21.01;100.00;100492.19;5548317;32;35687;-61
2023/07/23 06:04:52;;;;;;;7.93;3.80;;;;;;;21.24;100.00;100497.63;5534878;32;34336;-61
2023/07/23 06:07:55;;;;;;;6.60;3.83;;;;;;;21.41;100.00;100495.84;5548220;32;34194;-61
2023/07/23 06:10:58;;;;;;;5.60;3.15;;;;;;;21.50;100.00;100488.22;5515414;32;34061;-61
2023/07/23 06:14:02;;;;;;;5.25;3.30;;;;;;;21.65;100.00;100486.66;5529173;32;34131;-61
2023/07/23 06:17:05;;;;;;;7.03;3.42;;;;;;;21.87;100.00;100489.56;5529139;32;34009;-61
2023/07/23 06:20:08;;;;;;;8.55;3.87;;;;;;;21.88;100.00;100490.41;5529056;32;34105;-61
2023/07/23 06:23:11;;;;;;;6.65;3.75;;;;;;;21.86;100.00;100487.94;5515521;32;34201;-61
2023/07/23 06:26:14;;;;;;;5.93;3.80;;;;;;;21.97;100.00;100481.72;5539886;32;34717;-61
2023/07/23 06:29:17;;;;;;;9.35;4.12;;;;;;;22.21;100.00;100487.84;5547317;32;33412;-61
2023/07/23 06:32:20;;;;;;;7.05;3.78;;;;;;;22.10;98.13;100486.00;5548466;32;32879;-61
2023/07/23 06:35:23;;;;;;;6.35;3.83;;;;;;;22.29;98.66;100486.62;5547423;32;34127;-62
2023/07/23 06:38:26;;;;;;;7.28;4.12;;;;;;;22.39;100.00;100498.44;5548511;32;34203;-61
2023/07/23 06:41:29;;;;;;;7.28;3.97;;;;;;;22.56;93.54;100500.38;5548093;32;34584;-61
2023/07/23 06:44:33;;;;;;;5.07;3.62;;;;;;;22.73;90.57;100499.34;5548213;32;34330;-61
2023/07/23 06:47:39;;;;;;;5.40;3.33;;;;;;;22.96;90.40;100501.09;5548258;32;33496;-61
2023/07/23 06:50:44;;;;;;;6.72;3.50;;;;;;;23.12;86.65;100496.75;5534090;32;33853;-62
2023/07/23 06:53:48;;;;;;;7.72;3.67;;;;;;;23.24;89.03;100502.88;5547738;32;34255;-61
2023/07/23 06:56:54;;;;;;;4.97;3.42;;;;;;;23.36;84.27;100500.91;5547876;32;34207;-62
2023/07/23 06:59:57;;;;;;;6.95;3.28;;;;;;;23.55;82.25;100498.75;5534219;32;34165;-61
2023/07/23 07:03:00;;;;;;;4.45;3.33;;;;;;;23.60;79.95;100505.06;5548191;32;34184;-61
2023/07/23 07:06:06;;;;;;;5.97;4.15;;;;;;;23.91;80.65;100508.19;5547990;32;34037;-61
2023/07/23 07:09:09;;;;;;;7.20;3.85;;;;;;;24.08;76.08;100506.22;5534285;32;34900;-60
2023/07/23 07:12:12;;;;;;;5.37;3.80;;;;;;;24.35;74.85;100498.94;5534078;32;32918;-61
2023/07/23 07:15:14;;;;;;;5.05;3.25;;;;;;;24.42;71.64;100507.69;5534199;32;32912;-61
2023/07/23 07:18:18;;;;;;;5.53;3.28;;;;;;;24.52;71.24;100505.09;5547660;32;34189;-61
2023/07/23 07:21:20;;;;;;;5.53;3.25;;;;;;;24.86;69.15;100494.81;5547651;32;33522;-61
2023/07/23 07:24:24;;;;;;;10.60;3.78;;;;;;;25.01;67.38;100497.69;5547672;32;34302;-61
2023/07/23 07:27:27;;;;;;;4.40;3.40;;;;;;;25.31;65.15;100502.53;5547232;32;33685;-61
2023/07/23 07:30:30;;;;;;;5.65;3.70;;;;;;;25.43;65.83;100486.84;5547211;32;34330;-61
2023/07/23 07:33:32;;;;;;;5.60;3.78;;;;;;;26.05;63.90;100496.09;5533377;32;32974;-61
2023/07/23 07:36:36;;;;;;;5.07;3.15;;;;;;;26.82;61.26;100490.56;5533755;32;34902;-62
2023/07/23 07:39:40;;;;;;;4.62;3.17;;;;;;;27.45;57.53;100491.09;5547183;32;34727;-61
2023/07/23 07:42:43;;;;;;;4.87;3.05;;;;;;;28.57;53.67;100503.16;5533625;32;34351;-61
2023/07/23 07:45:52;;;;;;;6.87;3.30;;;;;;;28.82;52.17;100494.81;5533748;32;34004;-62
2023/07/23 07:48:56;;;;;;;4.12;3.03;;;;;;;29.41;50.18;100485.53;5533331;32;33952;-62
2023/07/23 07:51:59;;;;;;;5.10;2.97;;;;;;;30.46;47.87;100489.97;5547505;32;35022;-62
2023/07/23 07:55:02;;;;;;;4.40;3.00;;;;;;;28.75;50.42;100482.59;5534056;32;34061;-62
2023/07/23 07:58:05;;;;;;;4.12;2.90;;;;;;;29.76;49.70;100487.87;5547332;32;33958;-62
2023/07/23 08:01:09;;;;;;;4.28;3.00;;;;;;;30.08;46.87;100497.34;5547031;32;32974;-62
2023/07/23 08:04:12;;;;;;;4.28;2.90;;;;;;;29.04;49.10;100488.91;5547400;32;33905;-62
2023/07/23 08:07:19;;;;;;;4.53;2.80;;;;;;;29.96;48.74;100486.84;5533799;32;35148;-61
2023/07/23 08:10:22;;;;;;;3.55;2.70;;;;;;;30.93;45.52;100484.28;5547180;32;34034;-62
2023/07/23 08:13:25;;;;;;;4.37;2.97;;;;;;;29.85;47.45;100479.81;5533357;32;33435;-62
2023/07/23 08:16:30;;;;;;;4.55;2.75;;;;;;;29.07;50.20;100479.28;5533541;32;32849;-62
2023/07/23 08:19:33;;;;;;;5.12;2.90;;;;;;;30.53;47.41;100480.28;5533049;32;34168;-62
2023/07/23 08:22:36;;;;;;;3.55;2.70;;;;;;;31.79;43.60;100487.38;5546834;32;33417;-63
2023/07/23 08:25:42;;;;;;;3.72;2.80;;;;;;;31.92;44.17;100484.63;5547324;32;33799;-63
2023/07/23 08:28:51;;;;;;;3.35;2.65;;;;;;;31.81;41.82;100476.91;5546899;32;34044;-63
2023/07/23 08:31:56;;;;;;;4.05;2.72;;;;;;;31.03;41.75;100478.66;5546965;32;34161;-63
2023/07/23 08:34:59;;;;;;;6.30;2.80;;;;;;;31.98;40.51;100479.03;5533263;32;34759;-62
2023/07/23 08:38:02;;;;;;;4.75;3.10;;;;;;;31.67;41.50;100473.34;5546874;32;34092;-63
2023/07/23 08:41:39;;;;;;;3.83;2.67;;;;;;;32.75;38.18;100482.50;5546702;32;34179;-62
2023/07/23 08:45:19;;;;;;;4.05;2.78;;;;;;;30.59;40.98;100473.63;5535060;32;34711;-63
2023/07/23 08:48:35;;;;;;;2.75;2.45;;;;;;;30.55;41.11;100475.31;5519313;32;34155;-62
2023/07/23 08:51:44;;;;;;;4.28;2.55;;;;;;;31.66;39.67;100485.47;5527132;32;34261;-62
2023/07/23 08:54:47;;;;;;;3.83;2.87;;;;;;;33.05;37.13;100487.22;5526851;32;34036;-62
2023/07/23 08:57:50;;;;;;;4.93;2.80;;;;;;;33.05;38.43;100478.16;5526989;32;34814;-63
2023/07/23 09:00:54;;;;;;;5.20;2.50;;;;;;;32.46;37.08;100482.91;5515948;32;34729;-63
2023/07/23 09:03:56;;;;;;;3.78;2.87;;;;;;;33.62;37.17;100479.91;5515645;32;34149;-63
2023/07/23 09:07:01;;;;;;;5.57;2.90;;;;;;;33.39;35.43;100480.31;5529443;32;33680;-62
2023/07/23 09:10:04;;;;;;;4.18;2.85;;;;;;;34.56;35.28;100485.94;5516039;32;34118;-62
2023/07/23 09:13:13;;;;;;;4.47;2.58;;;;;;;34.41;35.00;100485.28;5529204;32;33985;-63
2023/07/23 09:16:23;;;;;;;4.45;2.83;;;;;;;34.95;33.99;100485.75;5546153;32;34871;-62
2023/07/23 09:19:26;;;;;;;6.05;2.50;;;;;;;34.80;33.25;100487.06;5548871;32;34038;-63
2023/07/23 09:22:32;;;;;;;5.45;2.70;;;;;;;34.82;33.38;100484.78;5548635;32;34117;-63
2023/07/23 09:25:36;;;;;;;4.45;2.50;;;;;;;35.26;31.98;100491.84;5534913;32;34180;-63
2023/07/23 09:28:39;;;;;;;3.35;2.60;;;;;;;35.11;32.45;100475.78;5548387;32;34210;-62
2023/07/23 09:31:45;;;;;;;2.80;2.20;;;;;;;33.98;34.37;100474.22;5534638;32;34138;-62
2023/07/23 09:34:48;;;;;;;4.07;2.72;;;;;;;33.59;35.04;100472.28;5534930;32;33928;-62
2023/07/23 09:38:00;;;;;;;3.95;2.95;;;;;;;35.70;31.13;100484.19;5548487;32;32808;-62
2023/07/23 09:41:05;;;;;;;3.35;2.20;;;;;;;35.50;31.18;100480.22;5547170;32;33816;-62
2023/07/23 09:44:10;;;;;;;7.10;2.55;;;;;;;35.43;30.57;100479.12;5534234;32;33988;-62
2023/07/23 09:47:13;;;;;;;3.30;2.50;;;;;;;35.93;30.02;100474.47;5534348;32;33969;-62
2023/07/23 09:50:16;;;;;;;2.90;2.33;;;;;;;36.44;29.55;100469.75;5545862;32;33883;-62
2023/07/23 09:53:21;;;;;;;3.05;2.40;;;;;;;37.05;29.81;100475.50;5547387;32;34004;-63
2023/07/23 09:56:25;;;;;;;4.20;2.30;;;;;;;36.84;30.04;100475.56;5548171;32;35057;-63
2023/07/23 09:59:29;;;;;;;4.28;2.70;;;;;;;37.18;28.52;100471.66;5548404;32;34767;-63
2023/07/23 10:02:40;;;;;;;4.15;2.50;;;;;;;36.43;28.92;100457.87;5548519;32;34798;-62
2023/07/23 10:05:44;;;;;;;3.58;2.40;;;;;;;37.00;27.76;100465.47;5548210;32;33934;-62
2023/07/23 10:08:48;;;;;;;4.30;2.30;;;;;;;36.79;27.44;100465.53;5533366;32;34629;-63
2023/07/23 10:11:52;;;;;;;3.72;2.70;;;;;;;35.78;28.25;100458.50;5548180;32;33992;-62
2023/07/23 10:14:55;;;;;;;2.95;2.65;;;;;;;33.84;30.25;100451.47;5548390;32;33951;-63
2023/07/23 10:18:01;;;;;;;3.87;2.67;;;;;;;34.54;30.52;100450.44;5541006;32;33889;-63
2023/07/23 10:21:07;;;;;;;2.95;2.53;;;;;;;36.56;29.75;100456.78;5529009;32;33828;-62
2023/07/23 10:24:10;;;;;;;3.50;2.55;;;;;;;38.08;26.97;100454.81;5528641;32;35479;-63
2023/07/23 10:27:16;;;;;;;6.03;2.58;;;;;;;38.31;25.66;100446.75;5529072;32;34585;-63
2023/07/23 10:30:20;;;;;;;2.97;2.58;;;;;;;38.83;25.02;100449.47;5528961;32;34391;-64
2023/07/23 10:33:26;;;;;;;3.45;2.67;;;;;;;39.20;25.41;100438.94;5533069;32;34127;-64
2023/07/23 10:36:29;;;;;;;6.25;2.80;;;;;;;38.09;25.61;100435.06;5515256;32;34871;-64
2023/07/23 10:39:49;;;;;;;4.20;2.65;;;;;;;38.62;26.30;100433.84;5515265;32;34276;-63
2023/07/23 10:43:11;;;;;;;4.12;2.65;;;;;;;38.22;26.58;100425.56;5529014;32;34804;-63
2023/07/23 10:46:18;;;;;;;5.72;2.50;;;;;;;37.80;26.40;100424.25;5515148;32;34065;-65
2023/07/23 10:49:26;;;;;;;4.68;2.62;;;;;;;35.51;29.16;100428.59;5502255;32;33605;-63
2023/07/23 10:52:29;;;;;;;2.50;2.28;;;;;;;37.55;28.18;100426.25;5528549;32;33797;-63
2023/07/23 10:55:35;;;;;;;3.47;2.75;;;;;;;39.91;24.63;100431.16;5528319;32;33661;-63
2023/07/23 10:58:40;;;;;;;5.60;2.78;;;;;;;37.18;27.51;100416.31;5528564;32;34789;-64
2023/07/23 11:01:44;;;;;;;4.62;2.83;;;;;;;37.66;26.12;100413.56;5528506;32;33958;-65
2023/07/23 11:04:48;;;;;;;4.07;2.55;;;;;;;37.54;25.87;100415.53;5528550;32;34252;-63
2023/07/23 11:08:11;;;;;;;3.40;2.83;;;;;;;36.33;27.67;100416.84;5521624;32;34852;-64
2023/07/23 11:11:14;;;;;;;3.30;2.75;;;;;;;37.98;25.78;100416.47;5546167;32;34067;-65
2023/07/23 11:14:25;;;;;;;3.33;2.67;;;;;;;36.06;27.93;100401.62;5545627;32;34782;-64
2023/07/23 11:17:28;;;;;;;5.87;2.33;;;;;;;34.81;29.46;100391.38;5547916;32;34755;-63
2023/07/23 11:20:33;;;;;;;4.60;2.30;;;;;;;38.60;24.88;100382.66;5547551;32;32985;-66
2023/07/23 11:23:36;;;;;;;6.28;2.70;;;;;;;36.96;25.94;100395.41;5533110;32;34422;-64
2023/07/23 11:26:40;;;;;;;4.87;2.78;;;;;;;36.32;26.72;100393.13;5531558;32;34008;-63
2023/07/23 11:29:43;;;;;;;3.35;2.33;;;;;;;38.47;24.24;100378.34;5547136;32;33677;-63
2023/07/23 11:32:48;;;;;;;3.12;2.45;;;;;;;40.77;23.19;100381.69;5547305;32;35391;-64
2023/07/23 11:35:51;;;;;;;3.10;2.40;;;;;;;41.84;21.69;100377.78;5547161;32;34285;-63
2023/07/23 11:38:56;;;;;;;3.25;2.28;;;;;;;42.34;21.10;100373.66;5533770;32;34897;-63
2023/07/23 11:41:59;;;;;;;2.62;2.40;;;;;;;41.40;21.67;100367.19;5547046;32;34875;-64
2023/07/23 11:45:04;;;;;;;3.50;2.50;;;;;;;40.47;22.38;100357.66;5533759;32;33792;-64
2023/07/23 11:48:14;;;;;;;8.93;2.50;;;;;;;40.57;22.33;100346.72;5547007;32;35038;-63
2023/07/23 11:51:17;;;;;;;3.28;2.20;;;;;;;41.34;21.80;100360.38;5543611;32;34775;-64
2023/07/23 11:54:20;;;;;;;3.15;2.45;;;;;;;40.83;22.39;100357.12;5546959;32;34174;-63
2023/07/23 11:57:26;;;;;;;2.85;2.22;;;;;;;41.80;21.81;100352.66;5546713;32;34194;-63
2023/07/23 12:00:37;;;;;;;3.10;2.50;;;;;;;41.18;22.32;100343.03;5546707;32;35024;-63
2023/07/23 12:03:42;;;;;;;6.00;2.22;;;;;;;41.48;22.05;100338.34;5545603;32;34021;-63
2023/07/23 12:06:45;;;;;;;3.00;2.15;;;;;;;38.35;24.97;100322.94;5532592;32;34934;-64
2023/07/23 12:09:48;;;;;;;3.92;2.35;;;;;;;40.00;22.99;100324.53;5546902;32;33686;-63
2023/07/23 12:12:52;;;;;;;2.40;1.90;;;;;;;41.00;22.08;100336.34;5533029;32;33838;-63
2023/07/23 12:15:57;;;;;;;3.25;2.35;;;;;;;39.51;23.51;100322.31;5544529;32;34804;-63
2023/07/23 12:19:08;;;;;;;4.97;2.40;;;;;;;41.33;21.82;100307.84;5533084;32;34145;-64
2023/07/23 12:22:12;;;;;;;3.40;2.20;;;;;;;40.77;22.05;100303.78;5546772;32;34795;-63
2023/07/23 12:25:15;;;;;;;4.32;2.50;;;;;;;41.67;22.28;100306.75;5546548;32;34563;-63
2023/07/23 12:28:18;;;;;;;3.08;2.25;;;;;;;41.22;21.50;100310.47;5546294;32;33525;-63
2023/07/23 12:31:20;;;;;;;5.50;2.28;;;;;;;42.30;21.37;100315.09;5547073;32;33769;-64
2023/07/23 12:34:24;;;;;;;3.40;2.30;;;;;;;42.28;20.50;100308.28;5545731;32;34159;-63
2023/07/23 12:37:27;;;;;;;3.00;2.37;;;;;;;42.83;20.55;100300.81;5546940;32;34123;-63
2023/07/23 12:40:30;;;;;;;4.53;2.28;;;;;;;42.76;20.10;100298.78;5547018;32;34269;-64
2023/07/23 12:43:36;;;;;;;5.00;2.50;;;;;;;40.33;22.03;100289.47;5532966;32;34552;-64
2023/07/23 12:46:40;;;;;;;2.75;2.42;;;;;;;41.45;21.41;100283.38;5533186;32;34597;-64
2023/07/23 12:49:43;;;;;;;3.47;2.20;;;;;;;42.81;20.64;100292.03;5546620;32;34824;-65
2023/07/23 12:52:47;;;;;;;2.60;2.20;;;;;;;42.27;19.85;100293.53;5546506;32;33260;-63
2023/07/23 12:55:49;;;;;;;4.87;2.40;;;;;;;40.04;22.23;100287.31;5546420;32;34410;-63
2023/07/23 12:58:52;;;;;;;3.17;2.37;;;;;;;40.66;21.90;100280.56;5532839;32;34230;-65
2023/07/23 13:01:55;;;;;;;3.10;2.20;;;;;;;42.27;21.12;100279.56;5546696;32;34118;-63
2023/07/23 13:04:58;;;;;;;3.12;2.58;;;;;;;42.33;21.09;100278.06;5545280;32;34546;-63
2023/07/23 13:08:01;;;;;;;4.57;2.35;;;;;;;42.88;20.20;100280.94;5532758;32;34804;-64
2023/07/23 13:11:04;;;;;;;4.62;2.33;;;;;;;44.25;18.59;100279.19;5546290;32;34524;-63
2023/07/23 13:14:07;;;;;;;2.50;2.25;;;;;;;44.32;18.33;100274.41;5546372;32;34805;-64
2023/07/23 13:17:10;;;;;;;2.70;2.45;;;;;;;43.81;19.09;100271.06;5532474;32;34724;-63
2023/07/23 13:20:13;;;;;;;2.30;2.10;;;;;;;43.57;19.49;100262.22;5546267;32;34179;-63
2023/07/23 13:23:16;;;;;;;3.35;2.20;;;;;;;44.71;18.37;100262.44;5532141;32;33845;-65
2023/07/23 13:26:19;;;;;;;2.75;2.05;;;;;;;46.64;17.05;100254.37;5545461;32;34839;-64
2023/07/23 13:29:22;;;;;;;3.17;2.42;;;;;;;44.02;17.92;100251.56;5531958;32;35354;-64
2023/07/23 13:32:25;;;;;;;2.97;2.45;;;;;;;43.78;17.93;100260.66;5545551;32;34328;-63
2023/07/23 13:35:30;;;;;;;3.12;2.53;;;;;;;42.99;18.52;100250.28;5532085;32;34093;-63
2023/07/23 13:38:33;;;;;;;2.37;2.17;;;;;;;42.67;19.01;100245.28;5546089;32;34040;-64
2023/07/23 13:41:39;;;;;;;3.45;2.30;;;;;;;44.00;18.47;100242.81;5532704;32;34066;-63
2023/07/23 13:44:42;;;;;;;3.30;2.53;;;;;;;43.03;19.44;100235.16;5546144;32;33236;-64
2023/07/23 13:47:45;;;;;;;3.47;2.60;;;;;;;42.55;20.21;100230.81;5535114;32;33954;-64
2023/07/23 13:50:48;;;;;;;6.22;2.58;;;;;;;42.86;20.22;100225.50;5548682;32;33861;-63
2023/07/23 13:53:53;;;;;;;3.83;2.60;;;;;;;44.76;18.24;100246.06;5548659;32;34653;-63
2023/07/23 13:56:56;;;;;;;2.90;2.05;;;;;;;43.50;20.19;100236.22;5548552;32;34653;-65
2023/07/23 14:00:01;;;;;;;3.80;2.53;;;;;;;43.46;18.32;100232.59;5548477;32;33037;-65
2023/07/23 14:03:13;;;;;;;4.32;2.42;;;;;;;42.80;18.80;100218.66;5548869;32;33750;-64
2023/07/23 14:06:16;;;;;;;4.72;2.62;;;;;;;41.32;20.10;100214.34;5547350;32;35353;-64
2023/07/23 14:09:20;;;;;;;2.60;2.30;;;;;;;40.48;20.99;100209.91;5534853;32;34014;-63
2023/07/23 14:12:24;;;;;;;2.58;2.37;;;;;;;42.77;19.36;100213.87;5522221;32;34116;-63